sensor_id;sensor_type;location;lat;lon;timestamp;P1;durP1;ratioP1;P2;durP2;ratioP2
2912;SDS011;1466;48.778;9.166;2022-09-13T00:01:06;17.13;;;7.13;;
2912;SDS011;1466;48.778;9.166;2022-09-13T00:03:32;19.73;;;8.13;;
2912;SDS011;1466;48.778;9.166;2022-09-13T00:05:59;12.30;;;6.60;;
2912;SDS011;1466;48.778;9.166;2022-09-13T00:08:32;10.60;;;6.63;;
2912;SDS011;1466;48.778;9.166;2022-09-13T00:10:57;17.27;;;6.43;;
2912;SDS011;1466;48.778;9.166;2022-09-13T00:13:23;11.07;;;6.27;;
2912;SDS011;1466;48.778;9.166;2022-09-13T00:15:49;15.63;;;7.77;;
2912;SDS011;1466;48.778;9.166;2022-09-13T00:18:15;13.83;;;6.70;;
2912;SDS011;1466;48.778;9.166;2022-09-13T00:20:41;16.20;;;7.07;;
2912;SDS011;1466;48.778;9.166;2022-09-13T00:23:07;13.00;;;6.90;;
2912;SDS011;1466;48.778;9.166;2022-09-13T00:25:33;11.80;;;6.70;;
2912;SDS011;1466;48.778;9.166;2022-09-13T00:27:59;14.00;;;7.03;;
2912;SDS011;1466;48.778;9.166;2022-09-13T00:30:24;15.83;;;7.70;;
2912;SDS011;1466;48.778;9.166;2022-09-13T00:32:50;22.77;;;8.07;;
2912;SDS011;1466;48.778;9.166;2022-09-13T00:35:15;15.07;;;7.13;;
2912;SDS011;1466;48.778;9.166;2022-09-13T00:37:41;23.73;;;8.77;;
2912;SDS011;1466;48.778;9.166;2022-09-13T00:40:07;15.00;;;6.73;;
2912;SDS011;1466;48.778;9.166;2022-09-13T00:42:33;16.73;;;6.77;;
2912;SDS011;1466;48.778;9.166;2022-09-13T00:45:20;16.10;;;6.53;;
2912;SDS011;1466;48.778;9.166;2022-09-13T00:50:16;14.03;;;7.03;;
2912;SDS011;1466;48.778;9.166;2022-09-13T00:53:06;20.80;;;8.32;;
2912;SDS011;1466;48.778;9.166;2022-09-13T00:55:46;13.52;;;6.53;;
2912;SDS011;1466;48.778;9.166;2022-09-13T00:58:25;9.73;;;6.32;;
2912;SDS011;1466;48.778;9.166;2022-09-13T01:00:58;13.90;;;7.18;;
2912;SDS011;1466;48.778;9.166;2022-09-13T01:03:27;19.93;;;8.07;;
2912;SDS011;1466;48.778;9.166;2022-09-13T01:05:59;18.10;;;7.40;;
2912;SDS011;1466;48.778;9.166;2022-09-13T01:08:34;16.52;;;6.35;;
2912;SDS011;1466;48.778;9.166;2022-09-13T01:11:02;18.00;;;7.83;;
2912;SDS011;1466;48.778;9.166;2022-09-13T01:13:30;11.27;;;6.50;;
2912;SDS011;1466;48.778;9.166;2022-09-13T01:15:57;9.57;;;6.45;;
2912;SDS011;1466;48.778;9.166;2022-09-13T01:18:24;17.55;;;7.15;;
2912;SDS011;1466;48.778;9.166;2022-09-13T01:54:55;14.00;;;7.53;;
2912;SDS011;1466;48.778;9.166;2022-09-13T01:57:46;18.10;;;7.70;;
2912;SDS011;1466;48.778;9.166;2022-09-13T02:00:19;11.35;;;6.57;;
2912;SDS011;1466;48.778;9.166;2022-09-13T02:02:46;12.40;;;6.73;;
2912;SDS011;1466;48.778;9.166;2022-09-13T02:05:20;18.40;;;8.13;;
2912;SDS011;1466;48.778;9.166;2022-09-13T02:07:56;15.07;;;7.82;;
2912;SDS011;1466;48.778;9.166;2022-09-13T02:10:45;17.20;;;7.50;;
2912;SDS011;1466;48.778;9.166;2022-09-13T02:13:16;13.57;;;7.82;;
2912;SDS011;1466;48.778;9.166;2022-09-13T02:15:47;14.23;;;7.45;;
2912;SDS011;1466;48.778;9.166;2022-09-13T02:18:19;10.75;;;6.60;;
2912;SDS011;1466;48.778;9.166;2022-09-13T02:20:49;12.63;;;7.90;;
2912;SDS011;1466;48.778;9.166;2022-09-13T02:23:19;8.98;;;6.70;;
2912;SDS011;1466;48.778;9.166;2022-09-13T02:25:50;15.00;;;7.00;;
2912;SDS011;1466;48.778;9.166;2022-09-13T02:28:20;14.35;;;6.97;;
2912;SDS011;1466;48.778;9.166;2022-09-13T02:30:52;23.55;;;8.15;;
2912;SDS011;1466;48.778;9.166;2022-09-13T02:33:23;11.27;;;6.50;;
2912;SDS011;1466;48.778;9.166;2022-09-13T02:35:58;13.80;;;6.65;;
2912;SDS011;1466;48.778;9.166;2022-09-13T02:38:29;21.88;;;8.05;;
2912;SDS011;1466;48.778;9.166;2022-09-13T02:41:20;13.48;;;7.45;;
2912;SDS011;1466;48.778;9.166;2022-09-13T02:44:40;11.70;;;7.15;;
2912;SDS011;1466;48.778;9.166;2022-09-13T02:52:38;15.55;;;7.10;;
2912;SDS011;1466;48.778;9.166;2022-09-13T02:59:50;15.32;;;6.70;;
2912;SDS011;1466;48.778;9.166;2022-09-13T03:02:17;13.53;;;7.20;;
2912;SDS011;1466;48.778;9.166;2022-09-13T03:04:45;15.35;;;7.18;;
2912;SDS011;1466;48.778;9.166;2022-09-13T03:07:11;27.43;;;8.60;;
2912;SDS011;1466;48.778;9.166;2022-09-13T03:09:40;13.50;;;7.20;;
2912;SDS011;1466;48.778;9.166;2022-09-13T03:17:47;20.20;;;8.10;;
2912;SDS011;1466;48.778;9.166;2022-09-13T03:20:29;17.83;;;7.65;;
2912;SDS011;1466;48.778;9.166;2022-09-13T03:31:51;20.50;;;8.10;;
2912;SDS011;1466;48.778;9.166;2022-09-13T03:41:54;10.23;;;7.10;;
2912;SDS011;1466;48.778;9.166;2022-09-13T03:44:24;20.83;;;8.50;;
2912;SDS011;1466;48.778;9.166;2022-09-13T03:46:53;14.00;;;7.47;;
2912;SDS011;1466;48.778;9.166;2022-09-13T03:49:22;25.10;;;9.20;;
2912;SDS011;1466;48.778;9.166;2022-09-13T03:51:50;27.58;;;9.02;;
2912;SDS011;1466;48.778;9.166;2022-09-13T03:54:18;19.52;;;8.63;;
2912;SDS011;1466;48.778;9.166;2022-09-13T03:57:04;14.05;;;8.13;;
2912;SDS011;1466;48.778;9.166;2022-09-13T03:59:38;16.38;;;7.72;;
2912;SDS011;1466;48.778;9.166;2022-09-13T04:02:16;11.23;;;5.50;;
2912;SDS011;1466;48.778;9.166;2022-09-13T04:04:43;16.48;;;6.15;;
2912;SDS011;1466;48.778;9.166;2022-09-13T04:07:10;19.95;;;6.63;;
2912;SDS011;1466;48.778;9.166;2022-09-13T04:09:40;8.75;;;5.20;;
2912;SDS011;1466;48.778;9.166;2022-09-13T04:12:05;11.80;;;5.60;;
2912;SDS011;1466;48.778;9.166;2022-09-13T04:14:33;10.30;;;5.63;;
2912;SDS011;1466;48.778;9.166;2022-09-13T04:16:59;21.40;;;7.17;;
2912;SDS011;1466;48.778;9.166;2022-09-13T04:19:25;12.40;;;6.20;;
2912;SDS011;1466;48.778;9.166;2022-09-13T04:21:51;21.43;;;7.30;;
2912;SDS011;1466;48.778;9.166;2022-09-13T04:24:18;19.55;;;6.03;;
2912;SDS011;1466;48.778;9.166;2022-09-13T04:26:47;10.85;;;6.00;;
2912;SDS011;1466;48.778;9.166;2022-09-13T04:29:15;16.30;;;6.10;;
2912;SDS011;1466;48.778;9.166;2022-09-13T04:31:42;25.73;;;7.93;;
2912;SDS011;1466;48.778;9.166;2022-09-13T04:34:08;17.08;;;7.07;;
2912;SDS011;1466;48.778;9.166;2022-09-13T04:36:34;13.17;;;6.63;;
2912;SDS011;1466;48.778;9.166;2022-09-13T04:38:59;15.60;;;6.80;;
2912;SDS011;1466;48.778;9.166;2022-09-13T04:41:25;16.63;;;6.50;;
2912;SDS011;1466;48.778;9.166;2022-09-13T04:43:51;14.00;;;6.30;;
2912;SDS011;1466;48.778;9.166;2022-09-13T04:46:16;14.30;;;6.67;;
2912;SDS011;1466;48.778;9.166;2022-09-13T04:48:44;18.42;;;6.70;;
2912;SDS011;1466;48.778;9.166;2022-09-13T04:51:15;11.13;;;6.32;;
2912;SDS011;1466;48.778;9.166;2022-09-13T04:53:42;18.75;;;7.15;;
2912;SDS011;1466;48.778;9.166;2022-09-13T04:56:08;23.50;;;8.20;;
2912;SDS011;1466;48.778;9.166;2022-09-13T04:58:34;31.88;;;9.50;;
2912;SDS011;1466;48.778;9.166;2022-09-13T05:01:04;24.90;;;8.30;;
2912;SDS011;1466;48.778;9.166;2022-09-13T05:03:31;22.90;;;7.53;;
2912;SDS011;1466;48.778;9.166;2022-09-13T05:06:05;12.25;;;5.65;;
2912;SDS011;1466;48.778;9.166;2022-09-13T05:08:32;14.20;;;6.18;;
2912;SDS011;1466;48.778;9.166;2022-09-13T05:10:59;20.52;;;7.45;;
2912;SDS011;1466;48.778;9.166;2022-09-13T05:13:25;12.10;;;6.57;;
2912;SDS011;1466;48.778;9.166;2022-09-13T05:15:57;22.25;;;7.63;;
2912;SDS011;1466;48.778;9.166;2022-09-13T05:18:24;21.92;;;7.78;;
2912;SDS011;1466;48.778;9.166;2022-09-13T05:20:54;18.27;;;7.18;;
2912;SDS011;1466;48.778;9.166;2022-09-13T05:23:21;16.58;;;7.25;;
2912;SDS011;1466;48.778;9.166;2022-09-13T05:25:58;16.45;;;6.82;;
2912;SDS011;1466;48.778;9.166;2022-09-13T05:28:26;17.05;;;7.30;;
2912;SDS011;1466;48.778;9.166;2022-09-13T05:30:57;25.70;;;7.95;;
2912;SDS011;1466;48.778;9.166;2022-09-13T05:33:28;35.72;;;9.65;;
2912;SDS011;1466;48.778;9.166;2022-09-13T05:35:56;27.08;;;7.75;;
2912;SDS011;1466;48.778;9.166;2022-09-13T05:38:22;18.70;;;6.90;;
2912;SDS011;1466;48.778;9.166;2022-09-13T05:40:52;24.45;;;8.80;;
2912;SDS011;1466;48.778;9.166;2022-09-13T05:43:20;18.13;;;7.82;;
2912;SDS011;1466;48.778;9.166;2022-09-13T05:45:47;20.08;;;7.55;;
2912;SDS011;1466;48.778;9.166;2022-09-13T05:48:12;23.63;;;7.73;;
2912;SDS011;1466;48.778;9.166;2022-09-13T05:50:38;24.53;;;8.10;;
2912;SDS011;1466;48.778;9.166;2022-09-13T05:53:04;23.30;;;8.70;;
2912;SDS011;1466;48.778;9.166;2022-09-13T05:55:30;25.10;;;8.57;;
2912;SDS011;1466;48.778;9.166;2022-09-13T05:57:56;25.93;;;8.97;;
2912;SDS011;1466;48.778;9.166;2022-09-13T06:00:22;25.90;;;8.40;;
2912;SDS011;1466;48.778;9.166;2022-09-13T06:02:48;14.40;;;6.70;;
2912;SDS011;1466;48.778;9.166;2022-09-13T06:05:13;27.73;;;9.03;;
2912;SDS011;1466;48.778;9.166;2022-09-13T06:07:39;32.17;;;9.33;;
2912;SDS011;1466;48.778;9.166;2022-09-13T06:10:06;20.58;;;7.70;;
2912;SDS011;1466;48.778;9.166;2022-09-13T06:12:35;15.48;;;6.65;;
2912;SDS011;1466;48.778;9.166;2022-09-13T06:15:01;27.07;;;9.10;;
2912;SDS011;1466;48.778;9.166;2022-09-13T06:17:27;18.33;;;7.72;;
2912;SDS011;1466;48.778;9.166;2022-09-13T06:19:53;13.30;;;7.30;;
2912;SDS011;1466;48.778;9.166;2022-09-13T06:22:18;13.57;;;7.07;;
2912;SDS011;1466;48.778;9.166;2022-09-13T06:24:44;19.23;;;7.73;;
2912;SDS011;1466;48.778;9.166;2022-09-13T06:27:09;17.47;;;7.53;;
2912;SDS011;1466;48.778;9.166;2022-09-13T06:29:35;19.33;;;7.70;;
2912;SDS011;1466;48.778;9.166;2022-09-13T06:32:04;20.07;;;8.10;;
2912;SDS011;1466;48.778;9.166;2022-09-13T06:34:30;28.38;;;9.55;;
2912;SDS011;1466;48.778;9.166;2022-09-13T06:36:55;20.83;;;7.63;;
2912;SDS011;1466;48.778;9.166;2022-09-13T06:39:21;15.97;;;7.03;;
2912;SDS011;1466;48.778;9.166;2022-09-13T06:41:46;22.23;;;7.87;;
2912;SDS011;1466;48.778;9.166;2022-09-13T06:44:12;31.40;;;8.37;;
2912;SDS011;1466;48.778;9.166;2022-09-13T06:46:38;19.33;;;7.30;;
2912;SDS011;1466;48.778;9.166;2022-09-13T06:49:05;13.15;;;7.13;;
2912;SDS011;1466;48.778;9.166;2022-09-13T06:51:32;18.05;;;7.80;;
2912;SDS011;1466;48.778;9.166;2022-09-13T06:53:59;10.20;;;6.37;;
2912;SDS011;1466;48.778;9.166;2022-09-13T06:56:27;15.10;;;7.32;;
2912;SDS011;1466;48.778;9.166;2022-09-13T06:58:55;16.05;;;7.68;;
2912;SDS011;1466;48.778;9.166;2022-09-13T07:01:26;26.90;;;8.25;;
2912;SDS011;1466;48.778;9.166;2022-09-13T07:03:56;14.88;;;7.43;;
2912;SDS011;1466;48.778;9.166;2022-09-13T07:06:29;17.77;;;7.30;;
2912;SDS011;1466;48.778;9.166;2022-09-13T07:09:00;29.13;;;8.55;;
2912;SDS011;1466;48.778;9.166;2022-09-13T07:11:33;34.63;;;10.38;;
2912;SDS011;1466;48.778;9.166;2022-09-13T07:14:01;19.25;;;7.78;;
2912;SDS011;1466;48.778;9.166;2022-09-13T07:16:28;17.45;;;7.88;;
2912;SDS011;1466;48.778;9.166;2022-09-13T07:18:56;19.38;;;8.05;;
2912;SDS011;1466;48.778;9.166;2022-09-13T07:21:29;21.00;;;8.10;;
2912;SDS011;1466;48.778;9.166;2022-09-13T07:23:56;24.52;;;7.53;;
2912;SDS011;1466;48.778;9.166;2022-09-13T07:26:22;21.57;;;8.07;;
2912;SDS011;1466;48.778;9.166;2022-09-13T07:28:49;21.83;;;8.77;;
2912;SDS011;1466;48.778;9.166;2022-09-13T07:33:47;21.23;;;8.27;;
2912;SDS011;1466;48.778;9.166;2022-09-13T07:36:35;24.30;;;8.52;;
2912;SDS011;1466;48.778;9.166;2022-09-13T07:39:01;28.10;;;8.77;;
2912;SDS011;1466;48.778;9.166;2022-09-13T07:41:28;20.77;;;8.60;;
2912;SDS011;1466;48.778;9.166;2022-09-13T07:43:55;15.63;;;7.47;;
2912;SDS011;1466;48.778;9.166;2022-09-13T07:46:25;16.37;;;8.00;;
2912;SDS011;1466;48.778;9.166;2022-09-13T07:48:52;24.53;;;9.10;;
2912;SDS011;1466;48.778;9.166;2022-09-13T07:51:21;30.27;;;9.97;;
2912;SDS011;1466;48.778;9.166;2022-09-13T07:53:49;18.60;;;8.00;;
2912;SDS011;1466;48.778;9.166;2022-09-13T07:56:17;17.63;;;7.80;;
2912;SDS011;1466;48.778;9.166;2022-09-13T07:58:44;23.92;;;8.43;;
2912;SDS011;1466;48.778;9.166;2022-09-13T08:01:18;14.53;;;7.63;;
2912;SDS011;1466;48.778;9.166;2022-09-13T08:03:56;16.73;;;7.87;;
2912;SDS011;1466;48.778;9.166;2022-09-13T08:06:24;16.70;;;8.03;;
2912;SDS011;1466;48.778;9.166;2022-09-13T08:08:51;12.53;;;7.10;;
2912;SDS011;1466;48.778;9.166;2022-09-13T08:11:19;16.57;;;7.80;;
2912;SDS011;1466;48.778;9.166;2022-09-13T08:13:47;22.70;;;8.50;;
2912;SDS011;1466;48.778;9.166;2022-09-13T08:16:16;17.10;;;7.93;;
2912;SDS011;1466;48.778;9.166;2022-09-13T08:18:43;15.23;;;7.70;;
2912;SDS011;1466;48.778;9.166;2022-09-13T08:21:10;21.03;;;8.13;;
2912;SDS011;1466;48.778;9.166;2022-09-13T08:23:35;19.90;;;8.80;;
2912;SDS011;1466;48.778;9.166;2022-09-13T08:26:01;16.07;;;7.80;;
2912;SDS011;1466;48.778;9.166;2022-09-13T08:28:27;11.40;;;7.43;;
2912;SDS011;1466;48.778;9.166;2022-09-13T08:30:54;25.73;;;8.90;;
2912;SDS011;1466;48.778;9.166;2022-09-13T08:33:19;17.90;;;7.80;;
2912;SDS011;1466;48.778;9.166;2022-09-13T08:35:49;16.97;;;7.33;;
2912;SDS011;1466;48.778;9.166;2022-09-13T08:38:16;28.10;;;8.03;;
2912;SDS011;1466;48.778;9.166;2022-09-13T08:40:44;16.73;;;7.80;;
2912;SDS011;1466;48.778;9.166;2022-09-13T08:46:23;18.03;;;7.80;;
2912;SDS011;1466;48.778;9.166;2022-09-13T08:48:54;21.17;;;8.17;;
2912;SDS011;1466;48.778;9.166;2022-09-13T08:51:31;19.90;;;7.83;;
2912;SDS011;1466;48.778;9.166;2022-09-13T08:54:10;21.63;;;8.03;;
2912;SDS011;1466;48.778;9.166;2022-09-13T08:56:40;14.70;;;8.27;;
2912;SDS011;1466;48.778;9.166;2022-09-13T09:02:05;16.47;;;8.10;;
2912;SDS011;1466;48.778;9.166;2022-09-13T09:05:05;16.20;;;7.23;;
2912;SDS011;1466;48.778;9.166;2022-09-13T09:07:40;30.60;;;9.50;;
2912;SDS011;1466;48.778;9.166;2022-09-13T09:10:47;19.03;;;7.17;;
2912;SDS011;1466;48.778;9.166;2022-09-13T09:13:31;21.33;;;7.80;;
2912;SDS011;1466;48.778;9.166;2022-09-13T09:21:48;20.67;;;7.37;;
2912;SDS011;1466;48.778;9.166;2022-09-13T09:24:20;19.27;;;7.77;;
2912;SDS011;1466;48.778;9.166;2022-09-13T09:26:47;26.10;;;9.23;;
2912;SDS011;1466;48.778;9.166;2022-09-13T09:39:51;18.87;;;8.50;;
2912;SDS011;1466;48.778;9.166;2022-09-13T09:42:21;28.73;;;9.03;;
2912;SDS011;1466;48.778;9.166;2022-09-13T09:44:52;23.53;;;9.47;;
2912;SDS011;1466;48.778;9.166;2022-09-13T09:47:23;9.70;;;6.70;;
2912;SDS011;1466;48.778;9.166;2022-09-13T09:55:49;14.50;;;7.13;;
2912;SDS011;1466;48.778;9.166;2022-09-13T09:58:37;20.27;;;8.30;;
2912;SDS011;1466;48.778;9.166;2022-09-13T10:01:04;9.20;;;6.17;;
2912;SDS011;1466;48.778;9.166;2022-09-13T10:03:40;25.50;;;9.17;;
2912;SDS011;1466;48.778;9.166;2022-09-13T10:06:10;17.10;;;8.17;;
2912;SDS011;1466;48.778;9.166;2022-09-13T10:08:39;21.70;;;8.73;;
2912;SDS011;1466;48.778;9.166;2022-09-13T10:11:07;49.10;;;17.67;;
2912;SDS011;1466;48.778;9.166;2022-09-13T10:13:34;42.73;;;12.87;;
2912;SDS011;1466;48.778;9.166;2022-09-13T10:16:03;17.30;;;7.20;;
2912;SDS011;1466;48.778;9.166;2022-09-13T10:18:34;31.87;;;9.93;;
2912;SDS011;1466;48.778;9.166;2022-09-13T10:21:02;17.20;;;7.87;;
2912;SDS011;1466;48.778;9.166;2022-09-13T10:23:29;18.80;;;8.03;;
2912;SDS011;1466;48.778;9.166;2022-09-13T10:26:00;27.93;;;8.63;;
2912;SDS011;1466;48.778;9.166;2022-09-13T10:28:29;24.33;;;9.00;;
2912;SDS011;1466;48.778;9.166;2022-09-13T10:31:01;11.40;;;6.53;;
2912;SDS011;1466;48.778;9.166;2022-09-13T10:33:36;21.50;;;9.27;;
2912;SDS011;1466;48.778;9.166;2022-09-13T10:36:09;16.57;;;7.50;;
2912;SDS011;1466;48.778;9.166;2022-09-13T10:38:40;16.03;;;7.43;;
2912;SDS011;1466;48.778;9.166;2022-09-13T10:41:08;19.20;;;7.60;;
2912;SDS011;1466;48.778;9.166;2022-09-13T10:43:45;14.20;;;7.13;;
2912;SDS011;1466;48.778;9.166;2022-09-13T10:46:12;25.63;;;8.07;;
2912;SDS011;1466;48.778;9.166;2022-09-13T10:48:46;52.97;;;12.60;;
2912;SDS011;1466;48.778;9.166;2022-09-13T10:51:21;17.43;;;6.87;;
2912;SDS011;1466;48.778;9.166;2022-09-13T10:56:39;15.43;;;7.10;;
2912;SDS011;1466;48.778;9.166;2022-09-13T10:59:21;31.87;;;9.77;;
2912;SDS011;1466;48.778;9.166;2022-09-13T11:07:11;19.10;;;7.30;;
2912;SDS011;1466;48.778;9.166;2022-09-13T11:09:58;37.10;;;10.70;;
2912;SDS011;1466;48.778;9.166;2022-09-13T11:12:44;17.27;;;7.57;;
2912;SDS011;1466;48.778;9.166;2022-09-13T11:17:49;21.30;;;8.47;;
2912;SDS011;1466;48.778;9.166;2022-09-13T11:45:23;12.80;;;6.00;;
2912;SDS011;1466;48.778;9.166;2022-09-13T11:50:41;18.23;;;7.07;;
2912;SDS011;1466;48.778;9.166;2022-09-13T11:56:07;14.83;;;7.33;;
2912;SDS011;1466;48.778;9.166;2022-09-13T12:01:18;16.10;;;6.73;;
2912;SDS011;1466;48.778;9.166;2022-09-13T12:04:00;11.70;;;6.53;;
2912;SDS011;1466;48.778;9.166;2022-09-13T12:06:49;8.53;;;5.43;;
2912;SDS011;1466;48.778;9.166;2022-09-13T12:09:21;18.80;;;6.90;;
2912;SDS011;1466;48.778;9.166;2022-09-13T12:12:11;15.67;;;6.77;;
2912;SDS011;1466;48.778;9.166;2022-09-13T12:14:44;12.63;;;5.67;;
2912;SDS011;1466;48.778;9.166;2022-09-13T12:19:50;11.30;;;6.50;;
2912;SDS011;1466;48.778;9.166;2022-09-13T12:22:19;16.93;;;6.57;;
2912;SDS011;1466;48.778;9.166;2022-09-13T12:24:49;15.07;;;6.30;;
2912;SDS011;1466;48.778;9.166;2022-09-13T12:29:54;14.40;;;6.53;;
2912;SDS011;1466;48.778;9.166;2022-09-13T12:32:39;13.10;;;6.43;;
2912;SDS011;1466;48.778;9.166;2022-09-13T12:35:06;17.50;;;7.03;;
2912;SDS011;1466;48.778;9.166;2022-09-13T12:52:04;11.83;;;6.33;;
2912;SDS011;1466;48.778;9.166;2022-09-13T13:00:37;22.97;;;7.83;;
2912;SDS011;1466;48.778;9.166;2022-09-13T13:03:14;15.00;;;6.27;;
2912;SDS011;1466;48.778;9.166;2022-09-13T13:05:50;12.23;;;6.03;;
2912;SDS011;1466;48.778;9.166;2022-09-13T13:13:34;11.47;;;6.40;;
2912;SDS011;1466;48.778;9.166;2022-09-13T13:16:04;15.33;;;6.63;;
2912;SDS011;1466;48.778;9.166;2022-09-13T13:18:46;14.63;;;6.60;;
2912;SDS011;1466;48.778;9.166;2022-09-13T13:29:21;12.87;;;6.10;;
2912;SDS011;1466;48.778;9.166;2022-09-13T13:32:14;12.20;;;6.32;;
2912;SDS011;1466;48.778;9.166;2022-09-13T13:39:40;10.27;;;6.53;;
2912;SDS011;1466;48.778;9.166;2022-09-13T13:42:25;15.10;;;7.23;;
2912;SDS011;1466;48.778;9.166;2022-09-13T13:45:35;12.50;;;6.47;;
2912;SDS011;1466;48.778;9.166;2022-09-13T13:48:09;20.17;;;7.57;;
2912;SDS011;1466;48.778;9.166;2022-09-13T13:53:36;18.80;;;7.20;;
2912;SDS011;1466;48.778;9.166;2022-09-13T13:56:07;14.93;;;6.20;;
2912;SDS011;1466;48.778;9.166;2022-09-13T13:59:09;13.87;;;6.10;;
2912;SDS011;1466;48.778;9.166;2022-09-13T14:01:44;20.43;;;7.30;;
2912;SDS011;1466;48.778;9.166;2022-09-13T14:07:46;26.63;;;7.97;;
2912;SDS011;1466;48.778;9.166;2022-09-13T14:10:23;26.20;;;7.77;;
2912;SDS011;1466;48.778;9.166;2022-09-13T14:15:39;10.70;;;5.80;;
2912;SDS011;1466;48.778;9.166;2022-09-13T14:21:00;11.03;;;5.83;;
2912;SDS011;1466;48.778;9.166;2022-09-13T14:23:29;14.63;;;6.47;;
2912;SDS011;1466;48.778;9.166;2022-09-13T14:25:56;13.23;;;6.03;;
2912;SDS011;1466;48.778;9.166;2022-09-13T14:28:23;14.43;;;6.37;;
2912;SDS011;1466;48.778;9.166;2022-09-13T14:30:56;37.37;;;10.43;;
2912;SDS011;1466;48.778;9.166;2022-09-13T14:33:32;11.63;;;5.83;;
2912;SDS011;1466;48.778;9.166;2022-09-13T14:38:30;23.70;;;7.50;;
2912;SDS011;1466;48.778;9.166;2022-09-13T14:41:02;13.70;;;6.60;;
2912;SDS011;1466;48.778;9.166;2022-09-13T14:43:37;15.50;;;6.03;;
2912;SDS011;1466;48.778;9.166;2022-09-13T14:46:06;10.33;;;5.53;;
2912;SDS011;1466;48.778;9.166;2022-09-13T14:48:37;13.67;;;5.97;;
2912;SDS011;1466;48.778;9.166;2022-09-13T14:51:27;15.93;;;6.63;;
2912;SDS011;1466;48.778;9.166;2022-09-13T14:54:12;17.30;;;7.23;;
2912;SDS011;1466;48.778;9.166;2022-09-13T14:56:55;17.53;;;7.20;;
2912;SDS011;1466;48.778;9.166;2022-09-13T14:59:34;9.17;;;5.50;;
2912;SDS011;1466;48.778;9.166;2022-09-13T15:04:44;19.73;;;7.40;;
2912;SDS011;1466;48.778;9.166;2022-09-13T15:07:22;13.17;;;6.80;;
2912;SDS011;1466;48.778;9.166;2022-09-13T15:09:54;16.73;;;7.70;;
2912;SDS011;1466;48.778;9.166;2022-09-13T15:12:24;8.40;;;5.70;;
2912;SDS011;1466;48.778;9.166;2022-09-13T15:18:00;17.40;;;6.23;;
2912;SDS011;1466;48.778;9.166;2022-09-13T15:20:51;15.23;;;6.63;;
2912;SDS011;1466;48.778;9.166;2022-09-13T15:23:36;11.20;;;5.93;;
2912;SDS011;1466;48.778;9.166;2022-09-13T15:28:52;9.67;;;5.83;;
2912;SDS011;1466;48.778;9.166;2022-09-13T15:31:27;11.03;;;5.80;;
2912;SDS011;1466;48.778;9.166;2022-09-13T15:36:41;13.27;;;6.23;;
2912;SDS011;1466;48.778;9.166;2022-09-13T15:41:37;22.77;;;8.10;;
2912;SDS011;1466;48.778;9.166;2022-09-13T15:44:05;18.93;;;7.40;;
2912;SDS011;1466;48.778;9.166;2022-09-13T15:46:33;12.10;;;6.50;;
2912;SDS011;1466;48.778;9.166;2022-09-13T15:49:08;12.07;;;6.40;;
2912;SDS011;1466;48.778;9.166;2022-09-13T15:51:41;18.13;;;7.60;;
2912;SDS011;1466;48.778;9.166;2022-09-13T15:54:11;17.10;;;7.40;;
2912;SDS011;1466;48.778;9.166;2022-09-13T15:56:37;11.53;;;6.33;;
2912;SDS011;1466;48.778;9.166;2022-09-13T15:59:07;17.13;;;6.90;;
2912;SDS011;1466;48.778;9.166;2022-09-13T16:01:36;19.33;;;7.37;;
2912;SDS011;1466;48.778;9.166;2022-09-13T16:04:02;10.50;;;6.40;;
2912;SDS011;1466;48.778;9.166;2022-09-13T16:06:28;18.17;;;7.10;;
2912;SDS011;1466;48.778;9.166;2022-09-13T16:08:54;7.43;;;5.37;;
2912;SDS011;1466;48.778;9.166;2022-09-13T16:11:19;10.73;;;6.10;;
2912;SDS011;1466;48.778;9.166;2022-09-13T16:13:45;9.77;;;5.97;;
2912;SDS011;1466;48.778;9.166;2022-09-13T16:16:12;14.50;;;7.50;;
2912;SDS011;1466;48.778;9.166;2022-09-13T16:18:38;22.23;;;7.93;;
2912;SDS011;1466;48.778;9.166;2022-09-13T16:21:04;17.70;;;7.40;;
2912;SDS011;1466;48.778;9.166;2022-09-13T16:23:30;18.87;;;7.67;;
2912;SDS011;1466;48.778;9.166;2022-09-13T16:25:56;24.00;;;7.90;;
2912;SDS011;1466;48.778;9.166;2022-09-13T16:28:23;20.70;;;7.90;;
2912;SDS011;1466;48.778;9.166;2022-09-13T16:30:50;25.20;;;8.73;;
2912;SDS011;1466;48.778;9.166;2022-09-13T16:33:16;13.33;;;6.47;;
2912;SDS011;1466;48.778;9.166;2022-09-13T16:35:41;8.03;;;6.03;;
2912;SDS011;1466;48.778;9.166;2022-09-13T16:38:10;15.77;;;7.50;;
2912;SDS011;1466;48.778;9.166;2022-09-13T16:40:40;9.13;;;5.93;;
2912;SDS011;1466;48.778;9.166;2022-09-13T16:43:07;15.63;;;6.70;;
2912;SDS011;1466;48.778;9.166;2022-09-13T16:45:33;13.90;;;6.27;;
2912;SDS011;1466;48.778;9.166;2022-09-13T16:47:58;14.80;;;6.90;;
2912;SDS011;1466;48.778;9.166;2022-09-13T16:50:24;32.40;;;10.07;;
2912;SDS011;1466;48.778;9.166;2022-09-13T16:52:50;18.67;;;8.23;;
2912;SDS011;1466;48.778;9.166;2022-09-13T16:55:15;23.23;;;8.77;;
2912;SDS011;1466;48.778;9.166;2022-09-13T16:57:41;12.70;;;7.67;;
2912;SDS011;1466;48.778;9.166;2022-09-13T17:00:08;20.93;;;8.50;;
2912;SDS011;1466;48.778;9.166;2022-09-13T17:02:36;17.50;;;7.90;;
2912;SDS011;1466;48.778;9.166;2022-09-13T17:05:02;19.20;;;8.17;;
2912;SDS011;1466;48.778;9.166;2022-09-13T17:07:29;22.10;;;9.37;;
2912;SDS011;1466;48.778;9.166;2022-09-13T17:09:56;11.90;;;7.20;;
2912;SDS011;1466;48.778;9.166;2022-09-13T17:12:21;17.77;;;7.93;;
2912;SDS011;1466;48.778;9.166;2022-09-13T17:14:47;19.33;;;8.90;;
2912;SDS011;1466;48.778;9.166;2022-09-13T17:17:14;25.60;;;10.77;;
2912;SDS011;1466;48.778;9.166;2022-09-13T17:19:40;22.17;;;8.17;;
2912;SDS011;1466;48.778;9.166;2022-09-13T17:22:06;24.20;;;9.00;;
2912;SDS011;1466;48.778;9.166;2022-09-13T17:24:34;22.97;;;7.50;;
2912;SDS011;1466;48.778;9.166;2022-09-13T17:27:01;14.97;;;7.40;;
2912;SDS011;1466;48.778;9.166;2022-09-13T17:29:28;14.03;;;8.20;;
2912;SDS011;1466;48.778;9.166;2022-09-13T17:31:56;16.87;;;8.13;;
2912;SDS011;1466;48.778;9.166;2022-09-13T17:34:22;20.43;;;8.70;;
2912;SDS011;1466;48.778;9.166;2022-09-13T17:36:48;12.07;;;7.93;;
2912;SDS011;1466;48.778;9.166;2022-09-13T17:39:13;16.10;;;7.70;;
2912;SDS011;1466;48.778;9.166;2022-09-13T17:41:40;21.93;;;8.80;;
2912;SDS011;1466;48.778;9.166;2022-09-13T17:44:05;15.07;;;7.73;;
2912;SDS011;1466;48.778;9.166;2022-09-13T17:46:31;19.90;;;9.03;;
2912;SDS011;1466;48.778;9.166;2022-09-13T17:48:57;20.10;;;9.17;;
2912;SDS011;1466;48.778;9.166;2022-09-13T17:51:27;20.63;;;8.93;;
2912;SDS011;1466;48.778;9.166;2022-09-13T17:53:55;19.33;;;9.00;;
2912;SDS011;1466;48.778;9.166;2022-09-13T17:56:28;19.83;;;10.47;;
2912;SDS011;1466;48.778;9.166;2022-09-13T17:59:03;17.93;;;8.90;;
2912;SDS011;1466;48.778;9.166;2022-09-13T18:01:29;19.17;;;9.67;;
2912;SDS011;1466;48.778;9.166;2022-09-13T18:03:55;31.93;;;11.63;;
2912;SDS011;1466;48.778;9.166;2022-09-13T18:06:20;24.03;;;10.30;;
2912;SDS011;1466;48.778;9.166;2022-09-13T18:08:46;17.27;;;9.87;;
2912;SDS011;1466;48.778;9.166;2022-09-13T18:11:12;33.60;;;12.50;;
2912;SDS011;1466;48.778;9.166;2022-09-13T18:13:42;34.30;;;16.43;;
2912;SDS011;1466;48.778;9.166;2022-09-13T18:16:09;31.17;;;16.77;;
2912;SDS011;1466;48.778;9.166;2022-09-13T18:18:36;25.90;;;13.73;;
2912;SDS011;1466;48.778;9.166;2022-09-13T18:21:02;30.92;;;14.80;;
2912;SDS011;1466;48.778;9.166;2022-09-13T18:23:29;26.13;;;12.57;;
2912;SDS011;1466;48.778;9.166;2022-09-13T18:26:06;26.03;;;12.97;;
2912;SDS011;1466;48.778;9.166;2022-09-13T18:28:34;27.60;;;14.40;;
2912;SDS011;1466;48.778;9.166;2022-09-13T18:31:01;27.60;;;12.80;;
2912;SDS011;1466;48.778;9.166;2022-09-13T18:33:31;20.40;;;9.67;;
2912;SDS011;1466;48.778;9.166;2022-09-13T18:38:23;25.40;;;12.23;;
2912;SDS011;1466;48.778;9.166;2022-09-13T18:43:25;24.40;;;11.00;;
2912;SDS011;1466;48.778;9.166;2022-09-13T18:45:54;23.60;;;10.23;;
2912;SDS011;1466;48.778;9.166;2022-09-13T18:48:28;17.63;;;9.70;;
2912;SDS011;1466;48.778;9.166;2022-09-13T18:51:01;19.87;;;10.33;;
2912;SDS011;1466;48.778;9.166;2022-09-13T18:53:28;18.80;;;10.30;;
2912;SDS011;1466;48.778;9.166;2022-09-13T18:55:55;27.63;;;10.67;;
2912;SDS011;1466;48.778;9.166;2022-09-13T18:58:24;24.30;;;10.77;;
2912;SDS011;1466;48.778;9.166;2022-09-13T19:01:27;15.83;;;8.97;;